EGGP

Liverpool John Lennon Airport

Liverpool, United Kingdom
TAF EGGP 180457Z 1806/1906 26012KT 9999 SCT030 PROB30 TEMPO 1806/1823 27018G28KT PROB40 TEMPO 1814/1822 6000 -RADZ BKN014 BECMG 1901/1904 32004KT
Issued Valid From Valid To
Jun-18 @ 04:57 UTC
(6 hours ago)
Jun-18 @ 06:00 UTC
(5 hours ago)
Jun-19 @ 06:00 UTC
(in 19 hours)
Jun-18 @ 06:00 to Jun-19 @ 01:00
TAF EGGP 180457Z 1806/1906 26012KT 9999 SCT030
Wind Visibility Clouds
260° at 12 knots 10,000+ meters
  • Scattered at 3,000' AGL
Temporary  (Probability 30%) Jun-18 @ 06:00 to Jun-18 @ 23:00
PROB30 TEMPO 1806/1823 27018G28KT
Wind
270° at 18 knots
 Gusting to 28 knots
Temporary  (Probability 40%) Jun-18 @ 14:00 to Jun-18 @ 22:00
PROB40 TEMPO 1814/1822 6000 -RADZ BKN014
Visibility Clouds Conditions
6,003 meters
  • Broken at 1,400' AGL
  • Light Rain
  • Light Drizzle
Becoming Jun-19 @ 01:00 to Jun-19 @ 06:00
BECMG 1901/1904 32004KT
Wind Visibility Clouds
320° at 4 knots 10,000+ meters
  • Scattered at 3,000' AGL
TAF EGGP 180457Z 1806/1906 26012KT 9999 SCT030 PROB30 TEMPO 1806/1823 27018G28KT PROB40 TEMPO 1814/1822 6000 -RADZ BKN014 BECMG 1901/1904 32004KT
Issued Jun-18 @ 04:57 UTC
(6 hours ago)
Valid From Jun-18 @ 06:00 UTC
(5 hours ago)
Valid To Jun-19 @ 06:00 UTC
(in 19 hours)
Jun-18 @ 06:00 - Jun-19 @ 01:00
Wind Visibility
260° at 12 knots 10,000+ meters
Clouds
  • Scattered at 3,000' AGL
Probability 30% Temporary Jun-18 @ 06:00 - Jun-18 @ 23:00
Wind
270° at 18 knots
 Gusting to 28 knots
Probability 40% Temporary Jun-18 @ 14:00 - Jun-18 @ 22:00
Clouds
  • Broken at 1,400' AGL
Conditions
  • Light Rain
  • Light Drizzle
Becoming Jun-19 @ 01:00 - Jun-19 @ 06:00
Wind Visibility
320° at 4 knots 10,000+ meters
Clouds
  • Scattered at 3,000' AGL